RA67307 UUBC-UUBM
Flight info
| Callsign | RA67307 |
|---|---|
| Flight time | N/A |
| Altitude | 17000 |
| Route | N0480F170 SOTOG DCT DK DCT AO DCT STAUN DCT GENKE |
| Aircraft | C500/M-VGDW/C |
Departure
| Time | 2026-04-27 17:36 |
|---|---|
| Airport | Grabtsevo Airport (UUBC) |
Arrival
| Time | N/A |
|---|---|
| Airport | UUBM |
| Time | Latitude | Longitude | Altitude | Speed | Heading |
|---|---|---|---|---|---|
| 2026-04-27 17:31 | 54.54687 | 36.36862 | 609 ft | 0 kts | 198° |
| 2026-04-27 17:35 | 54.54671 | 36.36863 | 611 ft | 5 kts | 157° |
| 2026-04-27 17:35 | 54.54672 | 36.36983 | 613 ft | 15 kts | 84° |
| 2026-04-27 17:36 | 54.54668 | 36.37140 | 617 ft | 16 kts | 56° |
| 2026-04-27 17:36 | 54.54785 | 36.37201 | 609 ft | 43 kts | 328° |
| 2026-04-27 17:36 | 54.55275 | 36.36603 | 691 ft | 124 kts | 322° |
| 2026-04-27 17:36 | 54.56035 | 36.35667 | 1668 ft | 142 kts | 316° |
| 2026-04-27 17:37 | 54.57129 | 36.35365 | 2752 ft | 194 kts | 3° |
| 2026-04-27 17:37 | 54.58419 | 36.36600 | 3844 ft | 215 kts | 19° |
| 2026-04-27 17:37 | 54.59581 | 36.38148 | 5463 ft | 217 kts | 34° |
| 2026-04-27 17:37 | 54.60652 | 36.39982 | 6984 ft | 221 kts | 33° |
| 2026-04-27 17:38 | 54.61755 | 36.41982 | 8152 ft | 237 kts | 38° |
| 2026-04-27 17:38 | 54.62863 | 36.44181 | 9386 ft | 248 kts | 39° |
| 2026-04-27 17:38 | 54.63993 | 36.46435 | 10600 ft | 253 kts | 39° |
| 2026-04-27 17:38 | 54.65163 | 36.48736 | 11922 ft | 256 kts | 39° |
| 2026-04-27 17:39 | 54.66353 | 36.51060 | 13180 ft | 262 kts | 39° |
| 2026-04-27 17:39 | 54.67576 | 36.53461 | 14289 ft | 266 kts | 39° |
| 2026-04-27 17:39 | 54.68810 | 36.55886 | 15336 ft | 271 kts | 40° |
| 2026-04-27 17:39 | 54.70059 | 36.58341 | 16295 ft | 279 kts | 40° |
| 2026-04-27 17:40 | 54.71400 | 36.60956 | 16559 ft | 311 kts | 41° |
| 2026-04-27 17:40 | 54.72919 | 36.63932 | 16557 ft | 345 kts | 42° |
| 2026-04-27 17:40 | 54.74398 | 36.67484 | 16544 ft | 376 kts | 52° |
| 2026-04-27 17:40 | 54.75774 | 36.71248 | 16535 ft | 371 kts | 51° |
| 2026-04-27 17:41 | 54.77198 | 36.74996 | 16528 ft | 371 kts | 50° |
| 2026-04-27 17:41 | 54.78631 | 36.78708 | 16506 ft | 372 kts | 50° |
| 2026-04-27 17:41 | 54.80056 | 36.82458 | 16498 ft | 372 kts | 51° |
| 2026-04-27 17:41 | 54.81461 | 36.86185 | 16500 ft | 373 kts | 51° |
| 2026-04-27 17:42 | 54.82883 | 36.89957 | 16490 ft | 373 kts | 51° |
| 2026-04-27 17:42 | 54.84315 | 36.93743 | 16487 ft | 373 kts | 51° |
| 2026-04-27 17:42 | 54.85724 | 36.97476 | 16479 ft | 373 kts | 51° |
| 2026-04-27 17:42 | 54.87151 | 37.01271 | 16480 ft | 374 kts | 51° |
| 2026-04-27 17:43 | 54.88579 | 37.05065 | 16469 ft | 374 kts | 51° |
| 2026-04-27 17:43 | 54.89989 | 37.08833 | 16465 ft | 374 kts | 51° |
| 2026-04-27 17:43 | 54.91395 | 37.12578 | 16463 ft | 373 kts | 51° |
| 2026-04-27 17:43 | 54.92814 | 37.16379 | 16458 ft | 373 kts | 51° |
| 2026-04-27 17:44 | 54.94236 | 37.20176 | 16456 ft | 374 kts | 51° |
| 2026-04-27 17:44 | 54.95641 | 37.23950 | 16450 ft | 374 kts | 51° |
| 2026-04-27 17:44 | 54.97045 | 37.27719 | 16449 ft | 374 kts | 52° |
| 2026-04-27 17:44 | 54.98462 | 37.31531 | 16443 ft | 374 kts | 51° |
| 2026-04-27 17:45 | 54.99880 | 37.35352 | 16440 ft | 374 kts | 52° |
| 2026-04-27 17:45 | 55.01276 | 37.39113 | 16430 ft | 373 kts | 51° |
| 2026-04-27 17:45 | 55.02689 | 37.42937 | 16426 ft | 374 kts | 52° |
| 2026-04-27 17:45 | 55.04101 | 37.46753 | 16423 ft | 374 kts | 52° |
| 2026-04-27 17:46 | 55.05494 | 37.50538 | 16418 ft | 374 kts | 52° |
| 2026-04-27 17:46 | 55.06905 | 37.54357 | 16414 ft | 374 kts | 52° |
| 2026-04-27 17:46 | 55.08298 | 37.58155 | 16410 ft | 373 kts | 52° |
| 2026-04-27 17:46 | 55.09707 | 37.61983 | 16402 ft | 373 kts | 52° |
| 2026-04-27 17:47 | 55.11108 | 37.65814 | 16398 ft | 373 kts | 52° |
| 2026-04-27 17:47 | 55.12039 | 37.68346 | 16396 ft | 373 kts | 52° |
| 2026-04-27 17:47 | 55.13892 | 37.73421 | 16387 ft | 373 kts | 52° |
| 2026-04-27 17:47 | 55.15278 | 37.77303 | 16378 ft | 375 kts | 56° |
| 2026-04-27 17:48 | 55.16073 | 37.81655 | 16363 ft | 385 kts | 77° |
| 2026-04-27 17:48 | 55.16166 | 37.86240 | 16212 ft | 368 kts | 88° |
| 2026-04-27 17:48 | 55.16081 | 37.90674 | 15807 ft | 357 kts | 89° |
| 2026-04-27 17:48 | 55.15962 | 37.94915 | 15409 ft | 349 kts | 89° |
| 2026-04-27 17:49 | 55.15881 | 37.99128 | 15013 ft | 343 kts | 88° |
| 2026-04-27 17:49 | 55.15809 | 38.03278 | 14618 ft | 338 kts | 88° |
| 2026-04-27 17:49 | 55.15735 | 38.07318 | 14239 ft | 334 kts | 88° |
| 2026-04-27 17:49 | 55.15645 | 38.11378 | 13854 ft | 332 kts | 88° |
| 2026-04-27 17:50 | 55.15566 | 38.15421 | 13474 ft | 331 kts | 88° |
| 2026-04-27 17:50 | 55.15398 | 38.23401 | 12681 ft | 329 kts | 89° |
| 2026-04-27 17:50 | 55.15595 | 38.27331 | 12176 ft | 318 kts | 67° |
| 2026-04-27 17:51 | 55.16583 | 38.30714 | 11680 ft | 306 kts | 46° |
| 2026-04-27 17:51 | 55.18070 | 38.33242 | 11192 ft | 296 kts | 33° |
| 2026-04-27 17:51 | 55.19676 | 38.35324 | 10714 ft | 281 kts | 15° |
| 2026-04-27 17:51 | 55.21506 | 38.36228 | 10249 ft | 266 kts | 359° |
| 2026-04-27 17:52 | 55.23289 | 38.36062 | 9786 ft | 251 kts | 340° |
| 2026-04-27 17:52 | 55.24859 | 38.35038 | 9336 ft | 238 kts | 323° |
| 2026-04-27 17:52 | 55.26189 | 38.33357 | 8850 ft | 232 kts | 316° |
| 2026-04-27 17:52 | 55.27035 | 38.32209 | 8523 ft | 232 kts | 317° |
| 2026-04-27 17:53 | 55.28708 | 38.29897 | 7921 ft | 228 kts | 317° |
| 2026-04-27 17:53 | 55.29956 | 38.28188 | 7513 ft | 225 kts | 317° |
| 2026-04-27 17:53 | 55.31168 | 38.26522 | 7123 ft | 222 kts | 318° |
| 2026-04-27 17:53 | 55.32376 | 38.24859 | 6734 ft | 220 kts | 318° |
| 2026-04-27 17:54 | 55.33576 | 38.23216 | 6388 ft | 216 kts | 319° |
| 2026-04-27 17:54 | 55.34737 | 38.21608 | 6091 ft | 213 kts | 319° |
| 2026-04-27 17:54 | 55.35899 | 38.20016 | 5785 ft | 210 kts | 320° |
| 2026-04-27 17:54 | 55.37046 | 38.18428 | 5461 ft | 208 kts | 320° |
| 2026-04-27 17:55 | 55.38178 | 38.16869 | 5141 ft | 206 kts | 319° |
| 2026-04-27 17:55 | 55.39291 | 38.15332 | 4822 ft | 204 kts | 319° |
| 2026-04-27 17:55 | 55.40405 | 38.13791 | 4501 ft | 201 kts | 318° |
| 2026-04-27 17:55 | 55.41490 | 38.12299 | 4193 ft | 198 kts | 318° |
| 2026-04-27 17:56 | 55.42570 | 38.10795 | 3873 ft | 196 kts | 317° |
| 2026-04-27 17:56 | 55.43643 | 38.09312 | 3549 ft | 196 kts | 316° |
| 2026-04-27 17:56 | 55.44714 | 38.07830 | 3229 ft | 196 kts | 316° |
| 2026-04-27 17:56 | 55.45775 | 38.06354 | 2912 ft | 196 kts | 315° |
| 2026-04-27 17:57 | 55.46848 | 38.04867 | 2605 ft | 198 kts | 315° |
| 2026-04-27 17:57 | 55.47937 | 38.03351 | 2276 ft | 200 kts | 315° |
| 2026-04-27 17:57 | 55.49038 | 38.01824 | 2010 ft | 199 kts | 314° |
| 2026-04-27 17:57 | 55.50085 | 38.00374 | 2132 ft | 188 kts | 314° |
| 2026-04-27 17:58 | 55.51092 | 37.98973 | 2259 ft | 181 kts | 314° |
| 2026-04-27 17:58 | 55.52056 | 37.97636 | 2387 ft | 167 kts | 314° |
| 2026-04-27 17:58 | 55.52954 | 37.96381 | 2214 ft | 163 kts | 313° |
| 2026-04-27 17:58 | 55.53832 | 37.95159 | 2027 ft | 151 kts | 313° |
| 2026-04-27 17:59 | 55.54611 | 37.94076 | 1846 ft | 136 kts | 311° |
| 2026-04-27 17:59 | 55.55485 | 37.93490 | 1630 ft | 156 kts | 353° |
| 2026-04-27 17:59 | 55.56425 | 37.94731 | 1389 ft | 186 kts | 54° |
| 2026-04-27 17:59 | 55.57078 | 37.96649 | 1280 ft | 175 kts | 49° |
| 2026-04-27 18:00 | 55.57731 | 37.98378 | 1220 ft | 166 kts | 51° |
| 2026-04-27 18:00 | 55.58347 | 38.00072 | 1188 ft | 160 kts | 51° |
| 2026-04-27 18:00 | 55.58884 | 38.01573 | 1182 ft | 131 kts | 51° |
| 2026-04-27 18:00 | 55.59262 | 38.02968 | 1106 ft | 129 kts | 85° |
| 2026-04-27 18:01 | 55.58827 | 38.04228 | 867 ft | 119 kts | 160° |
| 2026-04-27 18:01 | 55.58185 | 38.04995 | 947 ft | 104 kts | 161° |
| 2026-04-27 18:01 | 55.57619 | 38.04806 | 817 ft | 94 kts | 258° |
| 2026-04-27 18:01 | 55.57615 | 38.03683 | 1006 ft | 91 kts | 264° |
| 2026-04-27 18:02 | 55.57438 | 38.02626 | 1147 ft | 93 kts | 246° |
| 2026-04-27 18:02 | 55.56957 | 38.01768 | 860 ft | 102 kts | 229° |
| 2026-04-27 18:02 | 55.56567 | 38.00726 | 644 ft | 102 kts | 245° |
| 2026-04-27 18:02 | 55.56312 | 37.99567 | 455 ft | 100 kts | 251° |
| 2026-04-27 18:03 | 55.56117 | 37.98586 | 420 ft | 57 kts | 249° |
| 2026-04-27 18:03 | 55.56027 | 37.98115 | 429 ft | 34 kts | 253° |
| 2026-04-27 18:03 | 55.55967 | 37.97789 | 431 ft | 11 kts | 290° |
| 2026-04-27 18:03 | 55.56024 | 37.97758 | 427 ft | 27 kts | 341° |
| 2026-04-27 18:04 | 55.56109 | 37.97816 | 426 ft | 14 kts | 68° |
| 2026-04-27 18:04 | 55.56158 | 37.98025 | 421 ft | 21 kts | 66° |
| 2026-04-27 18:04 | 55.56239 | 37.98077 | 423 ft | 12 kts | 359° |
| 2026-04-27 18:04 | 55.56279 | 37.98020 | 424 ft | 5 kts | 253° |
| 2026-04-27 18:05 | 55.56279 | 37.98017 | 424 ft | 0 kts | 253° |